Time;durP1;ratioP1;P1;durP2;ratioP2;P2;SDS_P1;SDS_P2;PMS_P1;PMS_P2;Temp;Humidity;BMP_temperature;BMP_pressure;BME280_temperature;BME280_humidity;BME280_pressure;Samples;Min_cycle;Max_cycle;Signal;HPM_P1;HPM_P2
2022/09/18 00:00:37;;;;;;;;;;;;;;;10.37;100.00;98876.38;3056976;19;19979;-48
2022/09/18 00:01:42;;;;;;;;;;;;;;;10.39;100.00;98884.22;3055836;19;19919;-47
2022/09/18 00:02:44;;;;;;;;;;;;;;;10.39;100.00;98881.56;3056152;19;19927;-47
2022/09/18 00:03:49;;;;;;;;;;;;;;;10.39;100.00;98885.06;3056670;19;19929;-48
2022/09/18 00:04:51;;;;;;;;;;;;;;;10.39;100.00;98885.06;3056540;19;19934;-47
2022/09/18 00:05:55;;;;;;;;;;;;;;;10.40;100.00;98886.75;3056611;19;19926;-48
2022/09/18 00:07:00;;;;;;;;;;;;;;;10.39;100.00;98887.72;3056893;19;19934;-48
2022/09/18 00:08:02;;;;;;;;;;;;;;;10.39;100.00;98885.06;3056548;19;19923;-48
2022/09/18 00:09:07;;;;;;;;;;;;;;;10.40;100.00;98885.91;3056629;19;19974;-48
2022/09/18 00:10:09;;;;;;;;;;;;;;;10.38;100.00;98888.75;3056850;19;19951;-46
2022/09/18 00:11:15;;;;;;;;;;;;;;;10.40;100.00;98889.41;3056548;19;20105;-48
2022/09/18 00:12:16;;;;;;;;;;;;;;;10.40;100.00;98886.75;3057052;19;19943;-48
2022/09/18 00:13:21;;;;;;;;;;;;;;;10.39;100.00;98885.06;3056692;19;19926;-48
2022/09/18 00:14:23;;;;;;;;;;;;;;;10.40;100.00;98888.56;3056862;19;19936;-47
2022/09/18 00:15:27;;;;;;;;;;;;;;;10.39;100.00;98881.56;3056550;19;19982;-47
2022/09/18 00:16:29;;;;;;;;;;;;;;;10.40;100.00;98885.91;3056883;19;19940;-47
2022/09/18 00:17:33;;;;;;;;;;;;;;;10.41;100.00;98887.59;3056463;19;19926;-47
2022/09/18 00:18:35;;;;;;;;;;;;;;;10.41;100.00;98882.28;3056202;19;19930;-47
2022/09/18 00:19:40;;;;;;;;;;;;;;;10.40;100.00;98888.56;3055676;19;19956;-47
2022/09/18 00:20:41;;;;;;;;;;;;;;;10.39;100.00;98885.06;3056846;19;19930;-48
2022/09/18 00:21:47;;;;;;;;;;;;;;;10.39;100.00;98884.22;3056541;19;19927;-48
2022/09/18 00:22:49;;;;;;;;;;;;;;;10.38;100.00;98891.41;3056868;19;19947;-47
2022/09/18 00:23:55;;;;;;;;;;;;;;;10.38;100.00;98882.56;3056456;19;19987;-47
2022/09/18 00:24:57;;;;;;;;;;;;;;;10.35;100.00;98889.00;3056349;19;19978;-47
2022/09/18 00:26:01;;;;;;;;;;;;;;;10.37;100.00;98886.19;3056525;19;20044;-48
2022/09/18 00:27:06;;;;;;;;;;;;;;;10.37;100.00;98889.72;3056919;19;19930;-47
2022/09/18 00:28:07;;;;;;;;;;;;;;;10.37;100.00;98892.38;3056344;19;19931;-47
2022/09/18 00:29:12;;;;;;;;;;;;;;;10.38;100.00;98891.41;3055187;19;20670;-49
2022/09/18 00:30:14;;;;;;;;;;;;;;;10.38;100.00;98888.75;3055366;19;19968;-47
2022/09/18 00:31:24;;;;;;;;;;;;;;;10.39;100.00;98893.06;3055207;19;20325;-48
2022/09/18 00:32:26;;;;;;;;;;;;;;;10.40;100.00;98896.56;3054756;19;20027;-47
2022/09/18 00:33:30;;;;;;;;;;;;;;;10.39;100.00;98890.41;3055452;19;19936;-47
2022/09/18 00:34:32;;;;;;;;;;;;;;;10.39;100.00;98893.06;3055419;19;20456;-47
2022/09/18 00:35:43;;;;;;;;;;;;;;;10.40;100.00;98892.09;3055129;19;19979;-47
2022/09/18 00:36:45;;;;;;;;;;;;;;;10.40;100.00;98886.75;3055661;19;19922;-48
2022/09/18 00:37:49;;;;;;;;;;;;;;;10.40;100.00;98881.44;3056483;19;19915;-48
2022/09/18 00:38:51;;;;;;;;;;;;;;;10.41;100.00;98891.13;3057985;19;19922;-48
2022/09/18 00:39:55;;;;;;;;;;;;;;;10.43;100.00;98891.84;3056863;19;19978;-48
2022/09/18 00:41:00;;;;;;;;;;;;;;;10.43;100.00;98894.50;3057343;19;19927;-48
2022/09/18 00:42:05;;;;;;;;;;;;;;;10.43;100.00;98889.16;3055653;19;19981;-47
2022/09/18 00:43:23;;;;;;;;;;;;;;;10.46;100.00;98891.56;3055396;19;20365;-47
2022/09/18 00:44:35;;;;;;;;;;;;;;;10.48;100.00;98887.94;3056575;19;19919;-47
2022/09/18 00:45:37;;;;;;;;;;;;;;;10.48;100.00;98886.13;3056029;19;19984;-48
2022/09/18 00:46:41;;;;;;;;;;;;;;;10.51;100.00;98892.97;3054943;19;20238;-48
2022/09/18 00:47:47;;;;;;;;;;;;;;;10.52;100.00;98894.66;3055495;19;20346;-48
2022/09/18 00:48:54;;;;;;;;;;;;;;;10.54;100.00;98892.72;3055384;19;19922;-48
2022/09/18 00:50:03;;;;;;;;;;;;;;;10.55;100.00;98883.75;3055331;19;20250;-48
2022/09/18 00:51:05;;;;;;;;;;;;;;;10.58;100.00;98891.50;3055392;19;20379;-48
2022/09/18 00:52:10;;;;;;;;;;;;;;;10.59;100.00;98890.50;3054995;19;19926;-48
2022/09/18 00:53:12;;;;;;;;;;;;;;;10.62;100.00;98890.25;3056123;19;20359;-48
2022/09/18 00:54:16;;;;;;;;;;;;;;;10.63;100.00;98890.09;3055673;19;19923;-48
2022/09/18 00:55:19;;;;;;;;;;;;;;;10.65;100.00;98889.97;3056027;19;20251;-47
2022/09/18 00:56:24;;;;;;;;;;;;;;;10.67;100.00;98894.19;3055994;19;20321;-48
2022/09/18 00:57:28;;;;;;;;;;;;;;;10.71;100.00;98894.78;3055306;19;20591;-48
2022/09/18 00:58:32;;;;;;;;;;;;;;;10.71;100.00;98890.28;3055271;19;19925;-48
2022/09/18 00:59:35;;;;;;;;;;;;;;;10.74;100.00;98889.19;3055374;19;19927;-47
2022/09/18 01:00:39;;;;;;;;;;;;;;;10.75;100.00;98890.84;3055909;19;20346;-48
2022/09/18 01:01:41;;;;;;;;;;;;;;;10.76;100.00;98888.03;3056161;19;19954;-47
2022/09/18 01:02:47;;;;;;;;;;;;;;;10.81;100.00;98895.66;3055958;19;20247;-47
2022/09/18 01:03:49;;;;;;;;;;;;;;;10.82;100.00;98897.34;3056328;19;19978;-47
2022/09/18 01:04:53;;;;;;;;;;;;;;;10.82;100.00;98898.19;3056036;19;20319;-47
2022/09/18 01:06:31;;;;;;;;;;;;;;;10.85;100.00;98899.75;3055675;19;19983;-47
2022/09/18 01:07:42;;;;;;;;;;;;;;;10.87;100.00;98889.75;3054401;19;19948;-47
2022/09/18 01:08:56;;;;;;;;;;;;;;;10.89;100.00;98898.47;3054813;19;19996;-47
2022/09/18 01:10:16;;;;;;;;;;;;;;;10.92;100.00;98898.22;3054729;19;20375;-48
2022/09/18 01:11:24;;;;;;;;;;;;;;;10.95;100.00;98892.63;3055977;19;19950;-47
2022/09/18 01:12:38;;;;;;;;;;;;;;;10.97;100.00;98896.00;3055915;19;19986;-47
2022/09/18 01:13:45;;;;;;;;;;;;;;;10.99;100.00;98904.69;3056382;19;19943;-47
2022/09/18 01:15:03;;;;;;;;;;;;;;;11.00;100.00;98900.19;3055972;19;20708;-48
2022/09/18 01:16:10;;;;;;;;;;;;;;;11.02;100.00;98903.59;3055801;19;19919;-48
2022/09/18 01:17:13;;;;;;;;;;;;;;;11.04;100.00;98906.97;3055286;19;20334;-47
2022/09/18 01:18:18;;;;;;;;;;;;;;;11.04;100.00;98902.47;3055106;19;19923;-47
2022/09/18 01:19:33;;;;;;;;;;;;;;;11.04;100.00;98897.13;3055101;19;20016;-47
2022/09/18 01:21:00;;;;;;;;;;;;;;;11.07;100.00;98912.88;3054933;19;19931;-47
2022/09/18 01:22:06;;;;;;;;;;;;;;;11.08;100.00;98903.06;3054866;19;19918;-47
2022/09/18 01:23:16;;;;;;;;;;;;;;;11.09;100.00;98900.25;3055107;19;19919;-48
2022/09/18 01:24:46;;;;;;;;;;;;;;;11.10;100.00;98896.59;3054741;19;20281;-47
2022/09/18 01:26:00;;;;;;;;;;;;;;;11.12;100.00;98907.97;3055051;19;19919;-47
2022/09/18 01:27:06;;;;;;;;;;;;;;;11.13;100.00;98901.66;3055890;19;20004;-48
2022/09/18 01:28:10;;;;;;;;;;;;;;;11.14;100.00;98898.00;3055198;19;19927;-47
2022/09/18 01:29:29;;;;;;;;;;;;;;;11.14;100.00;98906.00;3054628;19;19915;-48
2022/09/18 01:30:31;;;;;;;;;;;;;;;11.14;100.00;98908.69;3054791;19;20259;-47
2022/09/18 01:31:39;;;;;;;;;;;;;;;11.16;100.00;98905.88;3055194;19;19919;-48
2022/09/18 01:33:10;;;;;;;;;;;;;;;11.15;100.00;98907.69;3054912;19;19922;-48
2022/09/18 01:34:14;;;;;;;;;;;;;;;11.17;100.00;98912.91;3054196;19;19936;-47
2022/09/18 01:35:19;;;;;;;;;;;;;;;11.17;100.00;98897.72;3055006;19;19974;-47
2022/09/18 01:36:42;;;;;;;;;;;;;;;11.20;100.00;98901.97;3055310;19;19926;-47
2022/09/18 01:37:51;;;;;;;;;;;;;;;11.18;100.00;98904.75;3054366;19;20437;-48
2022/09/18 01:38:54;;;;;;;;;;;;;;;11.21;100.00;98909.00;3054903;19;19942;-47
2022/09/18 01:40:01;;;;;;;;;;;;;;;11.23;100.00;98900.84;3054801;19;19919;-47
2022/09/18 01:41:06;;;;;;;;;;;;;;;11.21;100.00;98902.81;3054935;19;19918;-48
2022/09/18 01:42:11;;;;;;;;;;;;;;;11.16;100.00;98896.03;3055123;19;19926;-47
2022/09/18 01:43:14;;;;;;;;;;;;;;;11.23;100.00;98900.84;3055517;19;19987;-48
2022/09/18 01:44:20;;;;;;;;;;;;;;;11.24;100.00;98902.50;3057704;19;20338;-48
2022/09/18 01:45:25;;;;;;;;;;;;;;;11.23;100.00;98907.00;3057789;19;19946;-47
2022/09/18 01:46:29;;;;;;;;;;;;;;;11.26;100.00;98911.22;3057227;19;19940;-47
2022/09/18 01:47:33;;;;;;;;;;;;;;;11.26;100.00;98901.41;3057934;19;20272;-48
2022/09/18 01:48:42;;;;;;;;;;;;;;;11.28;100.00;98898.59;3057735;19;19915;-47
2022/09/18 01:49:45;;;;;;;;;;;;;;;11.28;100.00;98899.44;3057809;19;19994;-47
2022/09/18 01:50:52;;;;;;;;;;;;;;;11.30;100.00;98897.47;3057008;19;20375;-47
2022/09/18 01:51:59;;;;;;;;;;;;;;;11.31;100.00;98898.31;3057917;19;19976;-48
2022/09/18 01:53:06;;;;;;;;;;;;;;;11.31;100.00;98899.16;3058034;19;20000;-47
2022/09/18 01:54:11;;;;;;;;;;;;;;;11.33;100.00;98899.03;3057688;19;19926;-47
2022/09/18 01:55:19;;;;;;;;;;;;;;;11.34;100.00;98901.56;3058039;19;19982;-47
2022/09/18 01:56:49;;;;;;;;;;;;;;;11.35;100.00;98899.75;3058031;19;20029;-48
2022/09/18 01:57:55;;;;;;;;;;;;;;;11.35;100.00;98892.56;3057436;19;19994;-47
2022/09/18 01:58:57;;;;;;;;;;;;;;;11.36;100.00;98896.91;3057812;19;19923;-46
2022/09/18 02:00:12;;;;;;;;;;;;;;;11.37;100.00;98895.94;3057679;19;19926;-47
2022/09/18 02:01:17;;;;;;;;;;;;;;;11.37;100.00;98887.06;3057793;19;19915;-47
2022/09/18 02:02:25;;;;;;;;;;;;;;;11.37;100.00;98887.06;3057722;19;19929;-47
2022/09/18 02:03:38;;;;;;;;;;;;;;;11.38;100.00;98888.75;3057894;19;20031;-48
2022/09/18 02:04:43;;;;;;;;;;;;;;;11.36;100.00;98890.72;3057382;19;19923;-47
2022/09/18 02:05:51;;;;;;;;;;;;;;;11.35;100.00;98883.72;3057590;19;19915;-48
2022/09/18 02:07:01;;;;;;;;;;;;;;;11.35;100.00;98883.72;3056575;19;19943;-48
2022/09/18 02:08:22;;;;;;;;;;;;;;;11.36;100.00;98886.22;3057523;19;20320;-48
2022/09/18 02:09:31;;;;;;;;;;;;;;;11.36;100.00;98890.72;3057509;19;19914;-47
2022/09/18 02:10:34;;;;;;;;;;;;;;;11.36;100.00;98890.72;3057418;19;19915;-48
2022/09/18 02:11:42;;;;;;;;;;;;;;;11.35;100.00;98883.72;3057801;19;19918;-47
2022/09/18 02:12:44;;;;;;;;;;;;;;;11.27;100.00;98876.38;3057643;19;19919;-47
2022/09/18 02:13:57;;;;;;;;;;;;;;;11.35;100.00;98883.72;3057682;19;19946;-47
2022/09/18 02:15:11;;;;;;;;;;;;;;;11.36;100.00;98885.38;3057492;19;19995;-48
2022/09/18 02:16:28;;;;;;;;;;;;;;;11.37;100.00;98887.06;3057576;19;19943;-47
2022/09/18 02:17:31;;;;;;;;;;;;;;;11.36;100.00;98888.06;3057701;19;19973;-48
2022/09/18 02:18:39;;;;;;;;;;;;;;;11.36;100.00;98885.38;3057487;19;19994;-48
2022/09/18 02:19:42;;;;;;;;;;;;;;;11.37;100.00;98887.06;3057724;19;19935;-48
2022/09/18 02:20:46;;;;;;;;;;;;;;;11.36;100.00;98886.22;3057357;19;19919;-48
2022/09/18 02:21:48;;;;;;;;;;;;;;;11.36;100.00;98888.91;3057324;19;19984;-47
2022/09/18 02:22:53;;;;;;;;;;;;;;;11.36;100.00;98888.91;3057071;19;19914;-47
2022/09/18 02:23:57;;;;;;;;;;;;;;;11.37;100.00;98887.06;3057649;19;19915;-47
2022/09/18 02:25:02;;;;;;;;;;;;;;;11.37;100.00;98887.91;3057001;19;19923;-47
2022/09/18 02:26:06;;;;;;;;;;;;;;;11.37;100.00;98887.91;3057409;19;20275;-47
2022/09/18 02:27:11;;;;;;;;;;;;;;;11.35;100.00;98884.53;3056684;19;19927;-47
2022/09/18 02:28:14;;;;;;;;;;;;;;;11.37;100.00;98895.09;3057439;19;19919;-47
2022/09/18 02:29:18;;;;;;;;;;;;;;;11.39;100.00;98895.78;3056909;19;19935;-47
2022/09/18 02:30:20;;;;;;;;;;;;;;;11.38;100.00;98886.09;3057621;19;19936;-48
2022/09/18 02:31:25;;;;;;;;;;;;;;;11.39;100.00;98890.47;3056838;19;19926;-47
2022/09/18 02:32:27;;;;;;;;;;;;;;;11.38;100.00;98889.59;3057711;19;19927;-47
2022/09/18 02:33:33;;;;;;;;;;;;;;;11.39;100.00;98887.78;3056823;19;19962;-48
2022/09/18 02:34:35;;;;;;;;;;;;;;;11.40;100.00;98892.16;3057214;19;19927;-47
2022/09/18 02:35:41;;;;;;;;;;;;;;;11.39;100.00;98887.78;3056738;19;19919;-47
2022/09/18 02:36:50;;;;;;;;;;;;;;;11.39;100.00;98891.31;3057510;19;19923;-48
2022/09/18 02:37:59;;;;;;;;;;;;;;;11.40;100.00;98890.31;3057048;19;19921;-47
2022/09/18 02:39:15;;;;;;;;;;;;;;;11.40;100.00;98889.47;3057281;19;19978;-47
2022/09/18 02:41:53;;;;;;;;;;;;;;;11.39;100.00;98885.13;3051535;19;20035;-48
2022/09/18 02:43:01;;;;;;;;;;;;;;;11.40;100.00;98881.47;3057134;19;19922;-48
2022/09/18 02:44:23;;;;;;;;;;;;;;;11.39;100.00;98879.78;3056236;19;19986;-48
2022/09/18 02:45:36;;;;;;;;;;;;;;;11.39;100.00;98879.78;3057178;19;20348;-47
2022/09/18 02:46:45;;;;;;;;;;;;;;;11.38;100.00;98873.59;3056873;19;19926;-48
2022/09/18 02:47:50;;;;;;;;;;;;;;;11.37;100.00;98874.56;3057326;19;20351;-48
2022/09/18 02:49:08;;;;;;;;;;;;;;;11.37;100.00;98873.72;3056763;19;19948;-48
2022/09/18 02:50:29;;;;;;;;;;;;;;;11.39;100.00;98879.78;3057112;19;19934;-48
2022/09/18 02:51:54;;;;;;;;;;;;;;;11.39;100.00;98869.94;3057070;19;19922;-48
2022/09/18 02:53:04;;;;;;;;;;;;;;;11.39;100.00;98879.78;3056944;19;20039;-48
2022/09/18 02:54:10;;;;;;;;;;;;;;;11.39;100.00;98874.44;3057289;19;19932;-48
2022/09/18 02:55:14;;;;;;;;;;;;;;;11.39;100.00;98869.94;3054572;19;19923;-48
2022/09/18 02:56:22;;;;;;;;;;;;;;;11.39;100.00;98869.94;3056736;19;19923;-48
2022/09/18 02:57:26;;;;;;;;;;;;;;;11.38;100.00;98870.91;3056954;19;19926;-48
2022/09/18 02:58:37;;;;;;;;;;;;;;;11.38;100.00;98870.91;3056014;19;19926;-47
2022/09/18 02:59:46;;;;;;;;;;;;;;;11.39;100.00;98869.09;3055654;19;19943;-48
2022/09/18 03:00:54;;;;;;;;;;;;;;;11.39;100.00;98861.94;3057065;19;19955;-48
2022/09/18 03:01:58;;;;;;;;;;;;;;;11.39;100.00;98858.41;3056978;19;19926;-48
2022/09/18 03:03:04;;;;;;;;;;;;;;;11.39;100.00;98861.94;3056846;19;20030;-48
2022/09/18 03:04:13;;;;;;;;;;;;;;;11.38;100.00;98857.56;3056721;19;20424;-48
2022/09/18 03:05:33;;;;;;;;;;;;;;;11.38;100.00;98862.06;3056548;19;20346;-47
2022/09/18 03:06:35;;;;;;;;;;;;;;;11.39;100.00;98858.41;3056636;19;19923;-48
2022/09/18 03:07:40;;;;;;;;;;;;;;;11.38;100.00;98856.72;3056110;19;19939;-48
2022/09/18 03:08:42;;;;;;;;;;;;;;;11.40;100.00;98857.44;3057088;19;19926;-48
2022/09/18 03:09:46;;;;;;;;;;;;;;;11.39;100.00;98853.06;3056371;19;19971;-48
2022/09/18 03:10:49;;;;;;;;;;;;;;;11.40;100.00;98854.75;3056785;19;19980;-48
2022/09/18 03:11:54;;;;;;;;;;;;;;;11.41;100.00;98853.78;3056329;19;19914;-48
2022/09/18 03:12:56;;;;;;;;;;;;;;;11.41;100.00;98856.44;3056679;19;20447;-48
2022/09/18 03:14:01;;;;;;;;;;;;;;;11.43;100.00;98854.50;3056256;19;20063;-48
2022/09/18 03:15:04;;;;;;;;;;;;;;;11.43;100.00;98855.31;3056649;19;19919;-49
2022/09/18 03:16:09;;;;;;;;;;;;;;;11.43;100.00;98851.81;3056505;19;19915;-48
2022/09/18 03:17:11;;;;;;;;;;;;;;;11.41;100.00;98857.28;3056746;19;20219;-48
2022/09/18 03:18:16;;;;;;;;;;;;;;;11.43;100.00;98849.16;3056404;19;20226;-48
2022/09/18 03:19:18;;;;;;;;;;;;;;;11.41;100.00;98851.94;3056603;19;19971;-48
2022/09/18 03:20:22;;;;;;;;;;;;;;;11.43;100.00;98851.81;3057117;19;19922;-48
2022/09/18 03:21:25;;;;;;;;;;;;;;;11.43;100.00;98851.81;3056478;19;19915;-48
2022/09/18 03:22:29;;;;;;;;;;;;;;;11.44;100.00;98845.50;3056628;19;19926;-48
2022/09/18 03:23:31;;;;;;;;;;;;;;;11.41;100.00;98845.75;3056780;19;20541;-47
2022/09/18 03:24:48;;;;;;;;;;;;;;;11.40;100.00;98842.25;3056506;19;19934;-47
2022/09/18 03:25:51;;;;;;;;;;;;;;;11.41;100.00;98846.59;3056681;19;19934;-48
2022/09/18 03:26:56;;;;;;;;;;;;;;;11.42;100.00;98847.44;3056776;19;19933;-48
2022/09/18 03:28:00;;;;;;;;;;;;;;;11.40;100.00;98839.56;3055850;19;19930;-48
2022/09/18 03:29:13;;;;;;;;;;;;;;;11.39;100.00;98842.38;3056744;19;20342;-48
2022/09/18 03:30:16;;;;;;;;;;;;;;;11.39;100.00;98845.06;3056588;19;20243;-48
2022/09/18 03:31:20;;;;;;;;;;;;;;;11.35;100.00;98835.66;3056291;19;20230;-48
2022/09/18 03:32:22;;;;;;;;;;;;;;;11.34;100.00;98836.63;3056593;19;20312;-48
2022/09/18 03:33:28;;;;;;;;;;;;;;;11.39;100.00;98842.38;3056829;19;19947;-48
2022/09/18 03:34:30;;;;;;;;;;;;;;;11.36;100.00;98838.16;3056370;19;20280;-48
2022/09/18 03:35:34;;;;;;;;;;;;;;;11.36;100.00;98846.16;3056409;19;19923;-48
2022/09/18 03:36:39;;;;;;;;;;;;;;;11.39;100.00;98845.06;3056492;19;19926;-48
2022/09/18 03:37:41;;;;;;;;;;;;;;;11.39;100.00;98843.22;3056661;19;19946;-48
2022/09/18 03:38:47;;;;;;;;;;;;;;;11.42;100.00;98842.13;3056468;19;19930;-48
2022/09/18 03:39:49;;;;;;;;;;;;;;;11.44;100.00;98840.16;3056739;19;19934;-48
2022/09/18 03:40:53;;;;;;;;;;;;;;;11.44;100.00;98845.50;3055948;19;19929;-48
2022/09/18 03:41:55;;;;;;;;;;;;;;;11.43;100.00;98843.81;3055663;19;19930;-48
2022/09/18 03:42:59;;;;;;;;;;;;;;;11.44;100.00;98850.84;3056270;19;19934;-48
2022/09/18 03:44:01;;;;;;;;;;;;;;;11.44;100.00;98856.19;3056449;19;19923;-48
2022/09/18 03:45:06;;;;;;;;;;;;;;;11.40;100.00;98850.25;3056138;19;20561;-48
2022/09/18 03:46:08;;;;;;;;;;;;;;;11.42;100.00;98852.78;3056780;19;19939;-48
2022/09/18 03:47:12;;;;;;;;;;;;;;;11.46;100.00;98856.88;3055981;19;20277;-48
2022/09/18 03:48:14;;;;;;;;;;;;;;;11.46;100.00;98862.22;3055687;19;19987;-48
2022/09/18 03:49:19;;;;;;;;;;;;;;;11.46;100.00;98855.06;3055865;19;19927;-48
2022/09/18 03:50:21;;;;;;;;;;;;;;;11.49;100.00;98865.44;3056520;19;19930;-48
2022/09/18 03:51:25;;;;;;;;;;;;;;;11.52;100.00;98867.00;3056089;19;19915;-48
2022/09/18 03:52:29;;;;;;;;;;;;;;;11.54;100.00;98863.22;3056546;19;19919;-48
2022/09/18 03:53:41;;;;;;;;;;;;;;;11.55;100.00;98861.38;3056170;19;19927;-47
2022/09/18 03:55:02;;;;;;;;;;;;;;;11.58;100.00;98869.13;3056570;19;19940;-48
2022/09/18 03:56:37;;;;;;;;;;;;;;;11.61;100.00;98874.16;3055692;19;19934;-48
2022/09/18 03:57:57;;;;;;;;;;;;;;;11.66;100.00;98873.75;3055698;19;19990;-48
2022/09/18 03:59:11;;;;;;;;;;;;;;;11.69;100.00;98870.81;3056254;19;19922;-48
2022/09/18 04:00:25;;;;;;;;;;;;;;;11.70;100.00;98870.66;3056597;19;19915;-48
2022/09/18 04:01:35;;;;;;;;;;;;;;;11.74;100.00;98880.06;3056135;19;19919;-48
2022/09/18 04:02:57;;;;;;;;;;;;;;;11.76;100.00;98883.47;3056434;19;19947;-49
2022/09/18 04:04:27;;;;;;;;;;;;;;;11.79;100.00;98879.69;3056794;19;19923;-48
2022/09/18 04:05:48;;;;;;;;;;;;;;;11.83;100.00;98889.13;3057181;19;20762;-48
2022/09/18 04:07:11;;;;;;;;;;;;;;;11.86;100.00;98895.00;3056914;19;20275;-49
2022/09/18 04:08:13;;;;;;;;;;;;;;;11.89;100.00;98889.38;3055815;19;20354;-48
2022/09/18 04:09:54;;;;;;;;;;;;;;;11.96;100.00;98894.16;3055490;19;19940;-48
2022/09/18 04:10:56;;;;;;;;;;;;;;;11.98;100.00;98894.84;3056065;19;19936;-48
2022/09/18 04:12:01;;;;;;;;;;;;;;;12.02;100.00;98898.94;3055642;19;19946;-48
2022/09/18 04:13:03;;;;;;;;;;;;;;;12.03;100.00;98895.28;3056290;19;19950;-48
2022/09/18 04:14:10;;;;;;;;;;;;;;;12.06;100.00;98895.00;3055651;19;19990;-48
2022/09/18 04:15:13;;;;;;;;;;;;;;;12.10;100.00;98901.75;3056211;19;19926;-48
2022/09/18 04:16:17;;;;;;;;;;;;;;;12.11;100.00;98903.44;3055677;19;20026;-48
2022/09/18 04:17:20;;;;;;;;;;;;;;;12.13;100.00;98913.00;3056172;19;19919;-48
2022/09/18 04:18:24;;;;;;;;;;;;;;;12.14;100.00;98908.50;3055354;19;19919;-48
2022/09/18 04:19:26;;;;;;;;;;;;;;;12.14;100.00;98916.53;3055707;19;19947;-47
2022/09/18 04:20:33;;;;;;;;;;;;;;;12.13;100.00;98912.16;3055687;19;19915;-48
2022/09/18 04:21:34;;;;;;;;;;;;;;;12.15;100.00;98920.88;3055709;19;19931;-48
2022/09/18 04:22:39;;;;;;;;;;;;;;;12.15;100.00;98918.22;3056825;19;19918;-48
2022/09/18 04:23:41;;;;;;;;;;;;;;;12.15;100.00;98920.88;3056606;19;20263;-48
2022/09/18 04:24:46;;;;;;;;;;;;;;;12.15;100.00;98918.22;3055335;19;20552;-47
2022/09/18 04:25:48;;;;;;;;;;;;;;;12.15;100.00;98919.06;3055826;19;19937;-48
2022/09/18 04:26:52;;;;;;;;;;;;;;;12.15;100.00;98921.72;3055633;19;19923;-48
2022/09/18 04:27:57;;;;;;;;;;;;;;;12.15;100.00;98920.88;3056141;19;19936;-48
2022/09/18 04:29:02;;;;;;;;;;;;;;;12.15;100.00;98926.22;3054544;19;20400;-48
2022/09/18 04:30:05;;;;;;;;;;;;;;;12.16;100.00;98927.94;3056080;19;19938;-49
2022/09/18 04:31:11;;;;;;;;;;;;;;;12.17;100.00;98924.25;3055519;19;19922;-47
2022/09/18 04:32:13;;;;;;;;;;;;;;;12.19;100.00;98927.66;3056052;19;19934;-48
2022/09/18 04:33:18;;;;;;;;;;;;;;;12.18;100.00;98932.16;3055707;19;19958;-48
2022/09/18 04:34:21;;;;;;;;;;;;;;;12.19;100.00;98938.34;3055914;19;19963;-48
2022/09/18 04:35:25;;;;;;;;;;;;;;;12.20;100.00;98931.97;3055264;19;19933;-48
2022/09/18 04:36:28;;;;;;;;;;;;;;;12.22;100.00;98938.03;3055529;19;20269;-48
2022/09/18 04:37:32;;;;;;;;;;;;;;;12.21;100.00;98939.03;3055499;19;19993;-48
2022/09/18 04:38:35;;;;;;;;;;;;;;;12.19;100.00;98938.34;3055703;19;19922;-48
2022/09/18 04:39:40;;;;;;;;;;;;;;;12.21;100.00;98941.69;3055457;19;19923;-48
2022/09/18 04:40:43;;;;;;;;;;;;;;;12.21;100.00;98942.53;3055753;19;20433;-48
2022/09/18 04:41:50;;;;;;;;;;;;;;;12.19;100.00;98944.53;3054596;19;20276;-49
2022/09/18 04:42:54;;;;;;;;;;;;;;;12.22;100.00;98944.22;3055733;19;20334;-48
2022/09/18 04:43:58;;;;;;;;;;;;;;;12.23;100.00;98945.06;3055423;19;19923;-48
2022/09/18 04:45:00;;;;;;;;;;;;;;;12.23;100.00;98951.25;3055607;19;20012;-48
2022/09/18 04:46:05;;;;;;;;;;;;;;;12.24;100.00;98952.13;3055124;19;19946;-48
2022/09/18 04:47:07;;;;;;;;;;;;;;;12.27;100.00;98946.47;3055581;19;19930;-48
2022/09/18 04:48:11;;;;;;;;;;;;;;;12.28;100.00;98950.84;3055328;19;19940;-48
2022/09/18 04:49:16;;;;;;;;;;;;;;;12.27;100.00;98954.50;3054724;19;19930;-49
2022/09/18 04:50:20;;;;;;;;;;;;;;;12.26;100.00;98951.00;3055450;19;19996;-48
2022/09/18 04:51:47;;;;;;;;;;;;;;;12.19;100.00;98965.09;3055442;19;19990;-48
2022/09/18 04:52:52;;;;;;;;;;;;;;;12.22;100.00;98959.44;3055641;19;20031;-48
2022/09/18 04:53:54;;;;;;;;;;;;;;;12.24;100.00;98957.47;3055725;19;19938;-47
2022/09/18 04:54:59;;;;;;;;;;;;;;;12.25;100.00;98953.81;3055581;19;20357;-47
2022/09/18 04:56:01;;;;;;;;;;;;;;;12.27;100.00;98962.53;3055322;19;19985;-48
2022/09/18 04:57:09;;;;;;;;;;;;;;;12.23;100.00;98956.63;3055533;19;20150;-48
2022/09/18 04:58:12;;;;;;;;;;;;;;;12.18;100.00;98947.34;3055051;19;20642;-48
2022/09/18 04:59:18;;;;;;;;;;;;;;;12.26;100.00;98960.84;3055382;19;19927;-48
2022/09/18 05:00:21;;;;;;;;;;;;;;;12.21;100.00;98955.91;3055270;19;19918;-48
2022/09/18 05:01:26;;;;;;;;;;;;;;;12.25;100.00;98961.81;3055586;19;19963;-48
2022/09/18 05:02:27;;;;;;;;;;;;;;;12.24;100.00;98957.47;3055174;19;19925;-48
2022/09/18 05:03:32;;;;;;;;;;;;;;;12.25;100.00;98953.81;3055488;19;19926;-48
2022/09/18 05:04:34;;;;;;;;;;;;;;;12.29;100.00;98959.72;3054944;19;20271;-48
2022/09/18 05:05:56;;;;;;;;;;;;;;;12.24;100.00;98960.13;3055297;19;19947;-48
2022/09/18 05:06:58;;;;;;;;;;;;;;;12.25;100.00;98959.16;3055339;19;20047;-48
2022/09/18 05:08:03;;;;;;;;;;;;;;;12.23;100.00;98951.25;3055465;19;19926;-48
2022/09/18 05:09:05;;;;;;;;;;;;;;;12.22;100.00;98959.44;3054908;19;19974;-48
2022/09/18 05:10:10;;;;;;;;;;;;;;;12.25;100.00;98959.16;3055834;19;19932;-48
2022/09/18 05:11:13;;;;;;;;;;;;;;;12.27;100.00;98959.84;3055195;19;19919;-48
2022/09/18 05:12:17;;;;;;;;;;;;;;;12.23;100.00;98961.13;3055149;19;19919;-49
2022/09/18 05:13:19;;;;;;;;;;;;;;;12.20;100.00;98956.88;3055473;19;19923;-48
2022/09/18 05:14:34;;;;;;;;;;;;;;;12.23;100.00;98961.13;3055053;19;19919;-48
2022/09/18 05:15:38;;;;;;;;;;;;;;;12.26;100.00;98958.16;3055390;19;19919;-47
2022/09/18 05:16:42;;;;;;;;;;;;;;;12.26;100.00;98963.53;3054956;19;20322;-48
2022/09/18 05:18:07;;;;;;;;;;;;;;;12.23;100.00;98959.28;3055688;19;19918;-48
2022/09/18 05:19:14;;;;;;;;;;;;;;;12.28;100.00;98964.22;3058118;19;19919;-48
2022/09/18 05:20:17;;;;;;;;;;;;;;;12.29;100.00;98960.56;3058316;19;19975;-48
2022/09/18 05:21:22;;;;;;;;;;;;;;;12.31;100.00;98961.28;3058211;19;19923;-48
2022/09/18 05:22:24;;;;;;;;;;;;;;;12.27;100.00;98963.38;3058728;19;19922;-48
2022/09/18 05:23:29;;;;;;;;;;;;;;;12.28;100.00;98958.88;3058015;19;19918;-48
2022/09/18 05:24:31;;;;;;;;;;;;;;;12.30;100.00;98959.59;3058352;19;19946;-47
2022/09/18 05:25:36;;;;;;;;;;;;;;;12.31;100.00;98974.66;3058181;19;19922;-48
2022/09/18 05:26:38;;;;;;;;;;;;;;;12.31;100.00;98963.94;3058331;19;20414;-48
2022/09/18 05:27:42;;;;;;;;;;;;;;;12.30;100.00;98956.91;3058179;19;19926;-48
2022/09/18 05:28:47;;;;;;;;;;;;;;;12.30;100.00;98964.94;3058336;19;19945;-48
2022/09/18 05:29:51;;;;;;;;;;;;;;;12.27;100.00;98963.38;3056784;19;19919;-48
2022/09/18 05:31:00;;;;;;;;;;;;;;;12.32;100.00;98967.47;3058337;19;19933;-48
2022/09/18 05:32:12;;;;;;;;;;;;;;;12.39;100.00;98972.09;3058273;19;20542;-48
2022/09/18 05:33:14;;;;;;;;;;;;;;;12.38;100.00;98964.22;3058165;19;20296;-48
2022/09/18 05:34:19;;;;;;;;;;;;;;;12.38;100.00;98965.06;3058036;19;19925;-47
2022/09/18 05:35:21;;;;;;;;;;;;;;;12.36;100.00;98977.72;3057874;19;19926;-48
2022/09/18 05:36:26;;;;;;;;;;;;;;;12.38;100.00;98967.72;3057772;19;19927;-48
2022/09/18 05:37:28;;;;;;;;;;;;;;;12.41;100.00;98969.28;3058047;19;19925;-48
2022/09/18 05:38:33;;;;;;;;;;;;;;;12.42;100.00;98974.50;3057950;19;19919;-48
2022/09/18 05:39:36;;;;;;;;;;;;;;;12.36;100.00;98977.72;3057705;19;20598;-48
2022/09/18 05:40:40;;;;;;;;;;;;;;;12.40;100.00;98973.78;3057834;19;19919;-48
2022/09/18 05:41:46;;;;;;;;;;;;;;;12.40;100.00;98972.94;3056967;19;19930;-48
2022/09/18 05:42:48;;;;;;;;;;;;;;;12.41;100.00;98980.81;3057965;19;20360;-48
2022/09/18 05:43:53;;;;;;;;;;;;;;;12.41;100.00;98986.19;3058292;19;19990;-49